sensor_id;sensor_type;location;lat;lon;timestamp;P1;durP1;ratioP1;P2;durP2;ratioP2
35304;SDS011;26433;48.034;-1.764;2023-02-28T06:02:12;7.70;;;2.92;;
35304;SDS011;26433;48.034;-1.764;2023-02-28T06:07:17;14.65;;;2.85;;
35304;SDS011;26433;48.034;-1.764;2023-02-28T06:12:21;6.90;;;2.90;;
35304;SDS011;26433;48.034;-1.764;2023-02-28T06:17:26;7.00;;;3.30;;
35304;SDS011;26433;48.034;-1.764;2023-02-28T06:22:30;4.07;;;2.30;;
35304;SDS011;26433;48.034;-1.764;2023-02-28T06:27:33;4.10;;;3.05;;
35304;SDS011;26433;48.034;-1.764;2023-02-28T06:37:42;6.10;;;2.67;;
35304;SDS011;26433;48.034;-1.764;2023-02-28T06:42:46;4.85;;;2.58;;
35304;SDS011;26433;48.034;-1.764;2023-02-28T06:47:51;9.55;;;3.08;;
35304;SDS011;26433;48.034;-1.764;2023-02-28T06:52:55;6.65;;;3.25;;
35304;SDS011;26433;48.034;-1.764;2023-02-28T06:57:59;6.82;;;3.25;;
35304;SDS011;26433;48.034;-1.764;2023-02-28T07:03:04;6.40;;;3.03;;
35304;SDS011;26433;48.034;-1.764;2023-02-28T07:08:08;7.72;;;3.85;;
35304;SDS011;26433;48.034;-1.764;2023-02-28T07:13:11;11.10;;;2.90;;
35304;SDS011;26433;48.034;-1.764;2023-02-28T07:18:16;6.15;;;3.22;;
35304;SDS011;26433;48.034;-1.764;2023-02-28T07:23:21;6.80;;;3.50;;
35304;SDS011;26433;48.034;-1.764;2023-02-28T07:28:25;6.20;;;3.10;;
35304;SDS011;26433;48.034;-1.764;2023-02-28T07:33:30;8.55;;;2.90;;
35304;SDS011;26433;48.034;-1.764;2023-02-28T07:38:34;8.02;;;3.47;;
35304;SDS011;26433;48.034;-1.764;2023-02-28T07:43:38;15.98;;;3.92;;
35304;SDS011;26433;48.034;-1.764;2023-02-28T07:48:43;5.57;;;2.70;;
35304;SDS011;26433;48.034;-1.764;2023-02-28T07:53:47;7.87;;;3.55;;
35304;SDS011;26433;48.034;-1.764;2023-02-28T07:58:51;5.57;;;2.97;;
35304;SDS011;26433;48.034;-1.764;2023-02-28T08:03:56;7.47;;;3.10;;
35304;SDS011;26433;48.034;-1.764;2023-02-28T08:09:00;7.75;;;3.30;;
35304;SDS011;26433;48.034;-1.764;2023-02-28T08:14:04;12.18;;;3.50;;
35304;SDS011;26433;48.034;-1.764;2023-02-28T08:19:09;10.43;;;3.47;;
35304;SDS011;26433;48.034;-1.764;2023-02-28T08:24:12;9.82;;;3.12;;
35304;SDS011;26433;48.034;-1.764;2023-02-28T08:29:16;8.48;;;3.12;;
35304;SDS011;26433;48.034;-1.764;2023-02-28T08:34:21;5.05;;;2.60;;
35304;SDS011;26433;48.034;-1.764;2023-02-28T08:39:25;7.30;;;2.37;;
35304;SDS011;26433;48.034;-1.764;2023-02-28T08:44:28;7.03;;;3.10;;
35304;SDS011;26433;48.034;-1.764;2023-02-28T08:49:33;6.22;;;2.42;;
35304;SDS011;26433;48.034;-1.764;2023-02-28T08:54:37;7.07;;;2.72;;
35304;SDS011;26433;48.034;-1.764;2023-02-28T08:59:41;7.80;;;2.97;;
35304;SDS011;26433;48.034;-1.764;2023-02-28T09:04:46;6.12;;;2.67;;
35304;SDS011;26433;48.034;-1.764;2023-02-28T09:09:49;7.18;;;2.70;;
35304;SDS011;26433;48.034;-1.764;2023-02-28T09:14:59;5.55;;;2.37;;
35304;SDS011;26433;48.034;-1.764;2023-02-28T09:20:05;2.75;;;1.73;;
35304;SDS011;26433;48.034;-1.764;2023-02-28T09:25:09;6.87;;;2.58;;
35304;SDS011;26433;48.034;-1.764;2023-02-28T09:30:13;3.97;;;2.37;;
35304;SDS011;26433;48.034;-1.764;2023-02-28T09:35:19;5.53;;;2.17;;
35304;SDS011;26433;48.034;-1.764;2023-02-28T09:40:24;5.90;;;1.95;;
35304;SDS011;26433;48.034;-1.764;2023-02-28T09:45:29;5.50;;;2.10;;
35304;SDS011;26433;48.034;-1.764;2023-02-28T09:50:37;5.87;;;2.08;;
35304;SDS011;26433;48.034;-1.764;2023-02-28T09:55:47;4.43;;;1.60;;
35304;SDS011;26433;48.034;-1.764;2023-02-28T10:00:56;4.85;;;1.62;;
35304;SDS011;26433;48.034;-1.764;2023-02-28T10:06:06;3.28;;;1.40;;
35304;SDS011;26433;48.034;-1.764;2023-02-28T10:11:15;3.10;;;1.50;;
35304;SDS011;26433;48.034;-1.764;2023-02-28T10:16:24;4.03;;;1.40;;
35304;SDS011;26433;48.034;-1.764;2023-02-28T10:21:34;2.83;;;0.98;;
35304;SDS011;26433;48.034;-1.764;2023-02-28T10:26:39;3.00;;;1.40;;
35304;SDS011;26433;48.034;-1.764;2023-02-28T10:31:48;4.25;;;1.50;;
35304;SDS011;26433;48.034;-1.764;2023-02-28T10:36:55;5.00;;;1.48;;
35304;SDS011;26433;48.034;-1.764;2023-02-28T10:42:19;1.55;;;1.02;;
35304;SDS011;26433;48.034;-1.764;2023-02-28T10:47:27;3.22;;;1.23;;
35304;SDS011;26433;48.034;-1.764;2023-02-28T10:52:33;1.63;;;0.87;;
35304;SDS011;26433;48.034;-1.764;2023-02-28T10:57:40;4.50;;;1.60;;
35304;SDS011;26433;48.034;-1.764;2023-02-28T11:02:43;6.32;;;1.27;;
35304;SDS011;26433;48.034;-1.764;2023-02-28T11:07:52;2.12;;;0.93;;
35304;SDS011;26433;48.034;-1.764;2023-02-28T11:12:57;0.95;;;0.88;;
35304;SDS011;26433;48.034;-1.764;2023-02-28T11:18:02;3.22;;;1.37;;
35304;SDS011;26433;48.034;-1.764;2023-02-28T11:23:22;1.98;;;1.50;;
35304;SDS011;26433;48.034;-1.764;2023-02-28T11:28:30;2.67;;;1.37;;
35304;SDS011;26433;48.034;-1.764;2023-02-28T11:33:40;2.03;;;0.90;;
35304;SDS011;26433;48.034;-1.764;2023-02-28T11:38:48;1.05;;;0.77;;
35304;SDS011;26433;48.034;-1.764;2023-02-28T11:43:56;2.25;;;1.15;;
35304;SDS011;26433;48.034;-1.764;2023-02-28T11:49:16;1.58;;;1.08;;
35304;SDS011;26433;48.034;-1.764;2023-02-28T11:54:35;1.05;;;0.80;;
35304;SDS011;26433;48.034;-1.764;2023-02-28T12:00:15;1.58;;;1.00;;
35304;SDS011;26433;48.034;-1.764;2023-02-28T12:05:31;1.10;;;1.00;;
35304;SDS011;26433;48.034;-1.764;2023-02-28T12:10:44;2.67;;;0.80;;
35304;SDS011;26433;48.034;-1.764;2023-02-28T12:16:05;1.33;;;1.15;;
35304;SDS011;26433;48.034;-1.764;2023-02-28T12:21:31;1.45;;;1.15;;
35304;SDS011;26433;48.034;-1.764;2023-02-28T12:26:44;2.05;;;1.25;;
35304;SDS011;26433;48.034;-1.764;2023-02-28T12:31:50;1.48;;;0.80;;
35304;SDS011;26433;48.034;-1.764;2023-02-28T12:36:58;1.37;;;0.80;;
35304;SDS011;26433;48.034;-1.764;2023-02-28T12:42:12;2.55;;;0.98;;
35304;SDS011;26433;48.034;-1.764;2023-02-28T12:47:20;1.55;;;0.98;;
35304;SDS011;26433;48.034;-1.764;2023-02-28T12:52:25;2.40;;;1.20;;
35304;SDS011;26433;48.034;-1.764;2023-02-28T12:57:38;1.92;;;1.02;;
35304;SDS011;26433;48.034;-1.764;2023-02-28T13:02:53;3.80;;;1.00;;
35304;SDS011;26433;48.034;-1.764;2023-02-28T13:14:05;5.93;;;0.80;;
35304;SDS011;26433;48.034;-1.764;2023-02-28T13:19:18;0.73;;;0.73;;
35304;SDS011;26433;48.034;-1.764;2023-02-28T13:29:49;1.30;;;0.62;;
35304;SDS011;26433;48.034;-1.764;2023-02-28T13:40:32;2.53;;;0.68;;
35304;SDS011;26433;48.034;-1.764;2023-02-28T13:45:44;1.25;;;0.70;;
35304;SDS011;26433;48.034;-1.764;2023-02-28T13:56:45;3.17;;;1.00;;
35304;SDS011;26433;48.034;-1.764;2023-02-28T14:02:00;1.15;;;0.95;;
35304;SDS011;26433;48.034;-1.764;2023-02-28T14:07:16;0.88;;;0.80;;
35304;SDS011;26433;48.034;-1.764;2023-02-28T14:18:01;1.67;;;1.00;;
35304;SDS011;26433;48.034;-1.764;2023-02-28T14:23:09;3.55;;;0.75;;
35304;SDS011;26433;48.034;-1.764;2023-02-28T14:28:20;1.17;;;0.82;;
35304;SDS011;26433;48.034;-1.764;2023-02-28T14:33:38;0.70;;;0.62;;
35304;SDS011;26433;48.034;-1.764;2023-02-28T14:39:06;1.40;;;0.55;;
35304;SDS011;26433;48.034;-1.764;2023-02-28T14:44:17;3.17;;;0.95;;
35304;SDS011;26433;48.034;-1.764;2023-02-28T14:49:25;0.80;;;0.62;;
35304;SDS011;26433;48.034;-1.764;2023-02-28T14:54:31;2.08;;;1.10;;
35304;SDS011;26433;48.034;-1.764;2023-02-28T14:59:36;2.28;;;1.10;;
35304;SDS011;26433;48.034;-1.764;2023-02-28T15:04:41;1.17;;;0.90;;
35304;SDS011;26433;48.034;-1.764;2023-02-28T15:09:44;1.75;;;0.98;;
35304;SDS011;26433;48.034;-1.764;2023-02-28T15:14:48;2.90;;;0.90;;
35304;SDS011;26433;48.034;-1.764;2023-02-28T15:19:54;1.30;;;0.73;;
35304;SDS011;26433;48.034;-1.764;2023-02-28T15:24:58;1.67;;;1.15;;
35304;SDS011;26433;48.034;-1.764;2023-02-28T15:30:04;2.17;;;1.00;;
35304;SDS011;26433;48.034;-1.764;2023-02-28T15:35:26;1.60;;;0.88;;
35304;SDS011;26433;48.034;-1.764;2023-02-28T15:40:32;1.73;;;1.08;;
35304;SDS011;26433;48.034;-1.764;2023-02-28T15:45:41;2.50;;;0.88;;
35304;SDS011;26433;48.034;-1.764;2023-02-28T15:50:51;1.52;;;1.05;;
35304;SDS011;26433;48.034;-1.764;2023-02-28T15:56:00;1.62;;;1.02;;
35304;SDS011;26433;48.034;-1.764;2023-02-28T16:01:07;2.97;;;1.20;;
35304;SDS011;26433;48.034;-1.764;2023-02-28T16:06:32;2.40;;;1.10;;
35304;SDS011;26433;48.034;-1.764;2023-02-28T16:11:39;2.20;;;1.12;;
35304;SDS011;26433;48.034;-1.764;2023-02-28T16:16:45;2.60;;;1.33;;
35304;SDS011;26433;48.034;-1.764;2023-02-28T16:21:52;3.70;;;1.30;;
35304;SDS011;26433;48.034;-1.764;2023-02-28T16:26:56;2.20;;;1.08;;
35304;SDS011;26433;48.034;-1.764;2023-02-28T16:32:00;2.05;;;1.20;;
35304;SDS011;26433;48.034;-1.764;2023-02-28T16:37:11;3.50;;;1.40;;
35304;SDS011;26433;48.034;-1.764;2023-02-28T16:42:17;3.90;;;1.40;;
35304;SDS011;26433;48.034;-1.764;2023-02-28T16:47:24;3.85;;;1.27;;
35304;SDS011;26433;48.034;-1.764;2023-02-28T16:52:29;3.53;;;1.48;;
35304;SDS011;26433;48.034;-1.764;2023-02-28T16:57:33;4.72;;;1.92;;
35304;SDS011;26433;48.034;-1.764;2023-02-28T17:02:37;5.17;;;1.80;;
35304;SDS011;26433;48.034;-1.764;2023-02-28T17:07:45;3.05;;;1.48;;
35304;SDS011;26433;48.034;-1.764;2023-02-28T17:12:49;2.70;;;1.62;;
35304;SDS011;26433;48.034;-1.764;2023-02-28T17:17:55;3.33;;;1.60;;
35304;SDS011;26433;48.034;-1.764;2023-02-28T17:23:00;4.47;;;2.00;;
35304;SDS011;26433;48.034;-1.764;2023-02-28T17:28:04;3.45;;;1.92;;
35304;SDS011;26433;48.034;-1.764;2023-02-28T17:33:08;4.50;;;1.77;;
35304;SDS011;26433;48.034;-1.764;2023-02-28T17:38:17;4.60;;;1.90;;
35304;SDS011;26433;48.034;-1.764;2023-02-28T17:43:21;5.57;;;1.92;;
35304;SDS011;26433;48.034;-1.764;2023-02-28T17:48:25;5.43;;;1.97;;
35304;SDS011;26433;48.034;-1.764;2023-02-28T17:53:30;5.12;;;1.73;;
35304;SDS011;26433;48.034;-1.764;2023-02-28T17:58:34;4.32;;;1.77;;
35304;SDS011;26433;48.034;-1.764;2023-02-28T18:03:38;3.30;;;1.70;;
35304;SDS011;26433;48.034;-1.764;2023-02-28T18:08:43;4.55;;;1.65;;
35304;SDS011;26433;48.034;-1.764;2023-02-28T18:13:47;3.62;;;1.58;;
35304;SDS011;26433;48.034;-1.764;2023-02-28T18:18:53;6.15;;;1.60;;
35304;SDS011;26433;48.034;-1.764;2023-02-28T18:23:58;3.27;;;1.80;;
35304;SDS011;26433;48.034;-1.764;2023-02-28T18:29:02;4.53;;;1.83;;
35304;SDS011;26433;48.034;-1.764;2023-02-28T18:34:06;2.58;;;1.50;;
35304;SDS011;26433;48.034;-1.764;2023-02-28T18:39:11;2.90;;;1.43;;
35304;SDS011;26433;48.034;-1.764;2023-02-28T18:44:15;3.33;;;1.52;;
35304;SDS011;26433;48.034;-1.764;2023-02-28T18:49:21;6.15;;;1.67;;
35304;SDS011;26433;48.034;-1.764;2023-02-28T18:54:26;2.90;;;1.10;;
35304;SDS011;26433;48.034;-1.764;2023-02-28T18:59:31;3.92;;;1.50;;
35304;SDS011;26433;48.034;-1.764;2023-02-28T19:04:34;2.30;;;1.23;;
35304;SDS011;26433;48.034;-1.764;2023-02-28T19:09:39;2.90;;;1.23;;
35304;SDS011;26433;48.034;-1.764;2023-02-28T19:14:43;3.17;;;1.33;;
35304;SDS011;26433;48.034;-1.764;2023-02-28T19:24:52;3.78;;;1.83;;
35304;SDS011;26433;48.034;-1.764;2023-02-28T19:29:55;4.22;;;1.73;;
35304;SDS011;26433;48.034;-1.764;2023-02-28T19:35:00;4.80;;;1.73;;
35304;SDS011;26433;48.034;-1.764;2023-02-28T19:45:10;3.15;;;1.00;;
35304;SDS011;26433;48.034;-1.764;2023-02-28T19:50:15;2.47;;;0.90;;
35304;SDS011;26433;48.034;-1.764;2023-02-28T19:55:21;1.70;;;1.20;;
35304;SDS011;26433;48.034;-1.764;2023-02-28T20:00:24;1.12;;;0.62;;
35304;SDS011;26433;48.034;-1.764;2023-02-28T20:05:28;3.22;;;1.05;;
35304;SDS011;26433;48.034;-1.764;2023-02-28T20:10:34;3.75;;;1.20;;
35304;SDS011;26433;48.034;-1.764;2023-02-28T20:15:38;2.65;;;1.10;;
35304;SDS011;26433;48.034;-1.764;2023-02-28T20:20:41;2.97;;;0.98;;
35304;SDS011;26433;48.034;-1.764;2023-02-28T20:25:46;1.87;;;1.02;;
35304;SDS011;26433;48.034;-1.764;2023-02-28T20:30:52;2.55;;;1.17;;
35304;SDS011;26433;48.034;-1.764;2023-02-28T20:41:02;1.60;;;0.70;;
35304;SDS011;26433;48.034;-1.764;2023-02-28T20:46:07;2.28;;;1.33;;
35304;SDS011;26433;48.034;-1.764;2023-02-28T20:51:11;4.45;;;1.00;;
35304;SDS011;26433;48.034;-1.764;2023-02-28T20:56:17;1.58;;;0.77;;
35304;SDS011;26433;48.034;-1.764;2023-02-28T21:01:23;1.98;;;1.00;;
35304;SDS011;26433;48.034;-1.764;2023-02-28T21:06:29;4.15;;;1.20;;
35304;SDS011;26433;48.034;-1.764;2023-02-28T21:11:36;3.15;;;0.93;;
35304;SDS011;26433;48.034;-1.764;2023-02-28T21:16:40;4.00;;;1.27;;
35304;SDS011;26433;48.034;-1.764;2023-02-28T21:21:45;2.37;;;1.00;;
35304;SDS011;26433;48.034;-1.764;2023-02-28T21:26:50;2.65;;;1.08;;
35304;SDS011;26433;48.034;-1.764;2023-02-28T21:31:54;2.53;;;1.10;;
35304;SDS011;26433;48.034;-1.764;2023-02-28T21:36:58;3.35;;;1.50;;
35304;SDS011;26433;48.034;-1.764;2023-02-28T21:42:04;3.42;;;1.48;;
35304;SDS011;26433;48.034;-1.764;2023-02-28T21:47:07;4.95;;;1.60;;
35304;SDS011;26433;48.034;-1.764;2023-02-28T21:52:11;2.12;;;1.37;;
35304;SDS011;26433;48.034;-1.764;2023-02-28T21:57:17;5.43;;;1.37;;
35304;SDS011;26433;48.034;-1.764;2023-02-28T22:02:20;4.75;;;1.73;;
35304;SDS011;26433;48.034;-1.764;2023-02-28T22:07:24;4.70;;;1.52;;
35304;SDS011;26433;48.034;-1.764;2023-02-28T22:12:29;2.72;;;1.50;;
35304;SDS011;26433;48.034;-1.764;2023-02-28T22:17:33;5.28;;;1.92;;
35304;SDS011;26433;48.034;-1.764;2023-02-28T22:22:37;4.30;;;1.73;;
35304;SDS011;26433;48.034;-1.764;2023-02-28T22:27:42;4.40;;;1.77;;
35304;SDS011;26433;48.034;-1.764;2023-02-28T22:32:46;4.97;;;1.87;;
35304;SDS011;26433;48.034;-1.764;2023-02-28T22:37:50;4.62;;;1.83;;
35304;SDS011;26433;48.034;-1.764;2023-02-28T22:42:55;5.28;;;2.42;;
35304;SDS011;26433;48.034;-1.764;2023-02-28T22:47:59;5.60;;;2.37;;
35304;SDS011;26433;48.034;-1.764;2023-02-28T22:53:03;5.95;;;1.90;;
35304;SDS011;26433;48.034;-1.764;2023-02-28T22:58:09;7.15;;;2.35;;
35304;SDS011;26433;48.034;-1.764;2023-02-28T23:03:12;6.60;;;2.55;;
35304;SDS011;26433;48.034;-1.764;2023-02-28T23:08:16;4.43;;;2.35;;
35304;SDS011;26433;48.034;-1.764;2023-02-28T23:13:24;7.32;;;2.75;;
35304;SDS011;26433;48.034;-1.764;2023-02-28T23:18:28;5.40;;;2.40;;
35304;SDS011;26433;48.034;-1.764;2023-02-28T23:23:32;6.00;;;1.98;;
35304;SDS011;26433;48.034;-1.764;2023-02-28T23:28:37;4.55;;;1.98;;
